createdAt,value
2019-01-10T00:01:25.250Z,101525.67
2019-01-10T00:03:56.148Z,101527.81
2019-01-10T00:06:27.071Z,101529.07
2019-01-10T00:08:57.990Z,101532.07
2019-01-10T00:11:28.857Z,101529.52
2019-01-10T00:13:59.776Z,101529.95
2019-01-10T00:16:30.666Z,101542.30
2019-01-10T00:19:01.925Z,101536.75
2019-01-10T00:21:32.808Z,101539.75
2019-01-10T00:24:03.696Z,101543.16
2019-01-10T00:26:34.594Z,101545.28
2019-01-10T00:29:05.567Z,101543.58
2019-01-10T00:31:36.505Z,101552.11
2019-01-10T00:34:07.693Z,101554.25
2019-01-10T00:36:38.574Z,101558.09
2019-01-10T00:39:10.003Z,101559.80
2019-01-10T00:41:40.930Z,101561.50
2019-01-10T00:44:11.920Z,101566.63
2019-01-10T00:46:42.803Z,101570.02
2019-01-10T00:49:13.678Z,101563.62
2019-01-10T00:51:44.651Z,101563.20
2019-01-10T00:54:15.530Z,101571.73
2019-01-10T00:56:46.538Z,101565.33
2019-01-10T00:59:17.415Z,101562.77
2019-01-10T01:01:48.366Z,101561.06
2019-01-10T01:04:19.307Z,101575.15
2019-01-10T01:06:50.189Z,101566.17
2019-01-10T01:09:21.159Z,101578.97
2019-01-10T01:11:52.527Z,101575.98
2019-01-10T01:14:23.900Z,101584.50
2019-01-10T01:16:54.792Z,101586.22
2019-01-10T01:19:25.681Z,101584.91
2019-01-10T01:21:56.606Z,101593.44
2019-01-10T01:24:27.811Z,101602.39
2019-01-10T01:26:58.735Z,101596.42
2019-01-10T01:29:29.649Z,101601.95
2019-01-10T01:32:00.817Z,101601.95
2019-01-10T01:34:32.102Z,101602.79
2019-01-10T01:37:03.339Z,101603.63
2019-01-10T01:39:34.211Z,101612.55
2019-01-10T01:42:05.195Z,101618.53
2019-01-10T01:44:36.144Z,101621.05
2019-01-10T01:47:07.191Z,101627.01
2019-01-10T01:49:38.070Z,101624.84
2019-01-10T01:52:09.046Z,101632.12
2019-01-10T01:54:39.964Z,101633.83
2019-01-10T01:57:11.179Z,101646.55
2019-01-10T01:59:42.127Z,101649.50
2019-01-10T02:02:13.039Z,101657.57
2019-01-10T02:04:43.909Z,101653.71
2019-01-10T02:07:14.906Z,101663.85
2019-01-10T02:09:45.846Z,101663.87
2019-01-10T02:12:16.769Z,101666.42
2019-01-10T02:14:47.647Z,101667.19
2019-01-10T02:17:18.545Z,101665.52
2019-01-10T02:19:49.462Z,101674.00
2019-01-10T02:22:20.443Z,101685.52
2019-01-10T02:24:52.052Z,101681.24
2019-01-10T02:27:23.278Z,101680.42
2019-01-10T02:29:54.164Z,101677.92
2019-01-10T02:32:25.104Z,101681.37
2019-01-10T02:34:56.042Z,101675.38
2019-01-10T02:37:27.012Z,101673.70
2019-01-10T02:39:57.907Z,101669.88
2019-01-10T02:42:28.814Z,101674.94
2019-01-10T02:44:59.733Z,101681.28
2019-01-10T02:47:30.660Z,101685.08
2019-01-10T02:50:01.663Z,101686.76
2019-01-10T02:52:32.564Z,101691.44
2019-01-10T02:55:03.577Z,101696.88
2019-01-10T02:57:34.729Z,101694.98
2019-01-10T03:00:07.300Z,101708.42
2019-01-10T03:02:38.267Z,101706.33
2019-01-10T03:05:10.535Z,101703.33
2019-01-10T03:07:41.458Z,101703.66
2019-01-10T03:10:14.198Z,101702.74
2019-01-10T03:12:45.114Z,101712.58
2019-01-10T03:15:16.339Z,101706.92
2019-01-10T03:17:47.262Z,101706.48
2019-01-10T03:20:21.368Z,101714.59
2019-01-10T03:22:52.274Z,101713.09
2019-01-10T03:25:23.300Z,101715.25
2019-01-10T03:27:54.240Z,101710.03
2019-01-10T03:30:25.140Z,101720.59
2019-01-10T03:32:56.176Z,101718.02
2019-01-10T03:35:27.135Z,101726.53
2019-01-10T03:37:58.016Z,101719.81
2019-01-10T03:40:28.959Z,101711.77
2019-01-10T03:42:59.851Z,101710.83
2019-01-10T03:45:30.902Z,101715.47
2019-01-10T03:48:01.871Z,101715.53
2019-01-10T03:50:33.135Z,101720.61
2019-01-10T03:53:04.066Z,101715.41
2019-01-10T03:55:35.014Z,101713.85
2019-01-10T03:58:05.968Z,101705.30
2019-01-10T04:00:36.844Z,101705.85
2019-01-10T04:03:07.771Z,101710.95
2019-01-10T04:05:38.688Z,101715.62
2019-01-10T04:08:09.888Z,101721.87
2019-01-10T04:10:40.884Z,101720.75
2019-01-10T04:13:11.762Z,101715.17
2019-01-10T04:15:42.721Z,101725.06
2019-01-10T04:18:13.649Z,101718.63
2019-01-10T04:20:44.526Z,101715.72
2019-01-10T04:23:15.511Z,101719.55
2019-01-10T04:25:46.428Z,101714.44
2019-01-10T04:28:17.383Z,101718.39
2019-01-10T04:30:48.340Z,101720.07
2019-01-10T04:33:19.231Z,101723.16
2019-01-10T04:35:50.301Z,101732.92
2019-01-10T04:38:21.234Z,101721.04
2019-01-10T04:40:52.404Z,101717.70
2019-01-10T04:43:23.320Z,101722.83
2019-01-10T04:45:54.513Z,101727.81
2019-01-10T04:48:25.428Z,101724.45
2019-01-10T04:50:56.617Z,101726.62
2019-01-10T04:53:27.510Z,101719.52
2019-01-10T04:55:58.800Z,101723.26
2019-01-10T04:58:29.760Z,101723.73
2019-01-10T05:01:00.702Z,101724.92
2019-01-10T05:03:31.697Z,101719.41
2019-01-10T05:06:03.205Z,101721.88
2019-01-10T05:08:34.126Z,101734.66
2019-01-10T05:11:05.138Z,101723.09
2019-01-10T05:13:36.056Z,101721.97
2019-01-10T05:16:06.931Z,101719.41
2019-01-10T05:18:37.813Z,101725.83
2019-01-10T05:21:09.032Z,101726.55
2019-01-10T05:23:39.919Z,101724.55
2019-01-10T05:26:10.862Z,101732.20
2019-01-10T05:28:42.217Z,101737.25
2019-01-10T05:31:13.240Z,101737.79
2019-01-10T05:33:44.288Z,101736.02
2019-01-10T05:36:15.255Z,101742.39
2019-01-10T05:38:46.262Z,101744.06
2019-01-10T05:41:17.286Z,101739.67
2019-01-10T05:43:48.559Z,101747.21
2019-01-10T05:46:19.616Z,101736.27
2019-01-10T05:48:50.571Z,101743.86
2019-01-10T05:51:21.587Z,101743.03
2019-01-10T05:53:52.658Z,101752.08
2019-01-10T05:56:23.673Z,101754.98
2019-01-10T05:58:54.650Z,101754.04
2019-01-10T06:01:25.688Z,101756.14
2019-01-10T06:03:57.011Z,101764.61
2019-01-10T06:06:27.977Z,101762.18
2019-01-10T06:08:59.341Z,101763.89
2019-01-10T06:11:30.338Z,101761.37
2019-01-10T06:14:01.301Z,101768.58
2019-01-10T06:16:32.295Z,101770.75
2019-01-10T06:19:03.246Z,101780.13
2019-01-10T06:21:34.194Z,101776.69
2019-01-10T06:24:05.322Z,101785.30
2019-01-10T06:26:36.295Z,101781.30
2019-01-10T06:29:07.654Z,101786.06
2019-01-10T06:31:38.935Z,101797.79
2019-01-10T06:34:13.081Z,101802.99
2019-01-10T06:36:44.422Z,101804.80
2019-01-10T06:39:18.384Z,101803.14
2019-01-10T06:41:48.099Z,101805.70
2019-01-10T06:44:19.500Z,101811.14
2019-01-10T06:46:51.811Z,101817.09
2019-01-10T06:49:22.735Z,101815.23
2019-01-10T06:51:53.684Z,101812.13
2019-01-10T06:54:24.678Z,101809.89
2019-01-10T06:56:57.785Z,101814.02
2019-01-10T06:59:29.148Z,101815.66
2019-01-10T07:02:00.118Z,101823.69
2019-01-10T07:04:31.394Z,101822.38
2019-01-10T07:07:02.603Z,101833.87
2019-01-10T07:09:33.505Z,101834.22
2019-01-10T07:12:04.431Z,101830.18
2019-01-10T07:14:35.334Z,101835.58
2019-01-10T07:17:06.213Z,101839.80
2019-01-10T07:19:47.235Z,101847.84
2019-01-10T07:22:19.774Z,101846.49
2019-01-10T07:24:53.890Z,101857.61
2019-01-10T07:27:25.119Z,101859.67
2019-01-10T07:30:00.087Z,101856.78
2019-01-10T07:32:31.125Z,101860.63
2019-01-10T07:35:11.623Z,101860.16
2019-01-10T07:37:42.566Z,101861.45
2019-01-10T07:40:18.421Z,101866.38
2019-01-10T07:42:49.304Z,101870.04
2019-01-10T07:45:30.094Z,101867.98
2019-01-10T07:48:01.034Z,101868.50
2019-01-10T07:50:37.400Z,101861.59
2019-01-10T07:53:10.163Z,101866.38
2019-01-10T07:55:41.657Z,101871.95
2019-01-10T07:58:12.571Z,101873.69
2019-01-10T08:00:43.435Z,101870.34
2019-01-10T08:03:14.538Z,101875.59
2019-01-10T08:05:45.563Z,101874.22
2019-01-10T08:08:16.489Z,101873.38
2019-01-10T08:10:47.497Z,101868.77
2019-01-10T08:13:19.644Z,101878.33
2019-01-10T08:15:50.915Z,101878.38
2019-01-10T08:18:22.137Z,101880.06
2019-01-10T08:20:53.162Z,101876.41
2019-01-10T08:23:24.078Z,101884.36
2019-01-10T08:25:55.000Z,101883.39
2019-01-10T08:28:25.982Z,101892.66
2019-01-10T08:30:57.559Z,101897.27
2019-01-10T08:33:28.451Z,101900.11
2019-01-10T08:35:59.359Z,101909.89
2019-01-10T08:38:30.645Z,101909.80
2019-01-10T08:41:27.896Z,101910.70
2019-01-10T08:43:59.351Z,101917.27
2019-01-10T08:46:30.255Z,101919.45
2019-01-10T08:49:07.460Z,101925.05
2019-01-10T08:51:39.250Z,101926.80
2019-01-10T08:54:10.215Z,101924.70
2019-01-10T08:56:41.231Z,101924.31
2019-01-10T08:59:38.645Z,101931.50
2019-01-10T09:02:09.857Z,101930.23
2019-01-10T09:04:40.756Z,101938.97
2019-01-10T09:07:12.043Z,101937.70
2019-01-10T09:09:42.971Z,101939.41
2019-01-10T09:12:13.840Z,101939.45
2019-01-10T09:14:45.371Z,101936.52
2019-01-10T09:17:16.238Z,101938.28
2019-01-10T09:19:47.116Z,101943.38
2019-01-10T09:22:18.019Z,101947.81
2019-01-10T09:24:48.918Z,101952.57
2019-01-10T09:27:19.855Z,101947.05
2019-01-10T09:29:50.766Z,101949.17
2019-01-10T09:32:21.684Z,101944.52
2019-01-10T09:34:52.690Z,101948.81
2019-01-10T09:37:23.579Z,101943.82
2019-01-10T09:39:54.540Z,101941.72
2019-01-10T09:42:25.421Z,101946.03
2019-01-10T09:44:56.301Z,101950.25
2019-01-10T09:47:27.312Z,101946.02
2019-01-10T09:49:58.518Z,101951.67
2019-01-10T09:52:29.500Z,101949.09
2019-01-10T09:55:00.530Z,101955.52
2019-01-10T09:57:31.738Z,101950.39
2019-01-10T10:00:02.952Z,101958.58
2019-01-10T10:02:33.835Z,101955.59
2019-01-10T10:05:05.063Z,101952.24
2019-01-10T10:07:35.941Z,101962.53
2019-01-10T10:10:09.747Z,101960.77
2019-01-10T10:12:40.668Z,101963.77
2019-01-10T10:15:12.163Z,101964.61
2019-01-10T10:17:43.370Z,101962.88
2019-01-10T10:20:18.059Z,101965.43
2019-01-10T10:22:49.063Z,101968.44
2019-01-10T10:25:20.102Z,101967.12
2019-01-10T10:27:51.017Z,101970.95
2019-01-10T10:30:23.090Z,101969.67
2019-01-10T10:32:54.280Z,101972.24
2019-01-10T10:35:25.817Z,101976.13
2019-01-10T10:37:56.701Z,101980.37
2019-01-10T10:40:27.594Z,101974.41
2019-01-10T10:42:58.514Z,101975.30
2019-01-10T10:45:29.397Z,101982.16
2019-01-10T10:48:00.356Z,101981.25
2019-01-10T10:50:31.926Z,101980.44
2019-01-10T10:53:06.332Z,101978.70
2019-01-10T10:55:37.482Z,101980.36
2019-01-10T10:58:08.476Z,101983.75
2019-01-10T11:00:39.599Z,101973.52
2019-01-10T11:03:10.772Z,101971.00
2019-01-10T11:05:42.027Z,101967.17
2019-01-10T11:08:12.936Z,101962.94
2019-01-10T11:10:43.808Z,101974.80
2019-01-10T11:13:14.985Z,101975.67
2019-01-10T11:15:45.893Z,101962.88
2019-01-10T11:18:16.801Z,101957.85
2019-01-10T11:20:47.693Z,101960.86
2019-01-10T11:23:18.625Z,101964.70
2019-01-10T11:25:49.881Z,101956.13
2019-01-10T11:28:20.752Z,101955.81
2019-01-10T11:30:51.996Z,101957.97
2019-01-10T11:33:23.212Z,101952.37
2019-01-10T11:35:54.427Z,101944.16
2019-01-10T11:38:25.614Z,101950.24
2019-01-10T11:40:56.775Z,101948.48
2019-01-10T11:43:27.707Z,101939.08
2019-01-10T11:45:58.612Z,101942.95
2019-01-10T11:48:29.483Z,101940.80
2019-01-10T11:51:00.376Z,101935.19
2019-01-10T11:53:35.510Z,101937.79
2019-01-10T11:56:03.935Z,101932.97
2019-01-10T11:58:35.106Z,101927.90
2019-01-10T12:01:07.609Z,101932.58
2019-01-10T12:03:38.616Z,101931.37
2019-01-10T12:06:09.600Z,101934.70
2019-01-10T12:08:40.486Z,101932.18
2019-01-10T12:11:11.462Z,101926.66
2019-01-10T12:13:42.422Z,101925.81
2019-01-10T12:16:13.394Z,101930.50
2019-01-10T12:18:44.996Z,101925.41
2019-01-10T12:21:15.904Z,101922.85
2019-01-10T12:23:46.803Z,101924.53
2019-01-10T12:26:17.782Z,101922.01
2019-01-10T12:28:48.689Z,101921.93
2019-01-10T12:31:19.613Z,101921.09
2019-01-10T12:33:50.500Z,101917.69
2019-01-10T12:36:21.463Z,101907.39
2019-01-10T12:38:52.383Z,101904.39
2019-01-10T12:41:23.277Z,101913.00
2019-01-10T12:43:54.264Z,101914.64
2019-01-10T12:46:25.562Z,101917.64
2019-01-10T12:48:56.779Z,101913.36
2019-01-10T12:51:28.644Z,101914.20
2019-01-10T12:53:59.606Z,101920.21
2019-01-10T12:56:30.589Z,101920.64
2019-01-10T12:59:01.490Z,101921.89
2019-01-10T13:01:32.755Z,101914.59
2019-01-10T13:04:03.721Z,101920.60
2019-01-10T13:06:34.648Z,101923.06
2019-01-10T13:09:08.210Z,101924.39
2019-01-10T13:11:39.366Z,101923.94
2019-01-10T13:14:10.272Z,101923.89
2019-01-10T13:16:46.717Z,101928.09
2019-01-10T13:19:13.773Z,101923.93
2019-01-10T13:21:45.011Z,101928.55
2019-01-10T13:24:15.943Z,101928.49
2019-01-10T13:26:47.122Z,101927.72
2019-01-10T13:29:18.096Z,101918.75
2019-01-10T13:31:49.026Z,101918.25
2019-01-10T13:34:19.948Z,101924.19
2019-01-10T13:36:50.927Z,101926.31
2019-01-10T13:39:21.830Z,101922.08
2019-01-10T13:41:52.817Z,101924.71
2019-01-10T13:44:23.983Z,101922.16
2019-01-10T13:46:55.723Z,101916.64
2019-01-10T13:49:27.250Z,101911.52
2019-01-10T13:51:58.105Z,101923.82
2019-01-10T13:54:29.012Z,101914.86
2019-01-10T13:56:59.930Z,101911.84
2019-01-10T13:59:30.899Z,101914.92
2019-01-10T14:02:01.789Z,101914.48
2019-01-10T14:04:32.655Z,101918.30
2019-01-10T14:07:03.589Z,101924.31
2019-01-10T14:09:34.476Z,101922.99
2019-01-10T14:12:05.898Z,101920.88
2019-01-10T14:14:37.053Z,101914.02
2019-01-10T14:17:08.224Z,101911.44
2019-01-10T14:19:39.119Z,101913.56
2019-01-10T14:22:10.090Z,101907.62
2019-01-10T14:24:41.079Z,101913.56
2019-01-10T14:27:11.954Z,101912.30
2019-01-10T14:29:42.835Z,101906.27
2019-01-10T14:32:13.737Z,101914.33
2019-01-10T14:34:44.637Z,101921.47
2019-01-10T14:37:15.654Z,101923.92
2019-01-10T14:39:46.894Z,101925.59
2019-01-10T14:42:17.836Z,101931.09
2019-01-10T14:44:48.750Z,101926.77
2019-01-10T14:47:19.901Z,101928.95
2019-01-10T14:49:50.821Z,101928.13
2019-01-10T14:52:46.283Z,101923.91
2019-01-10T14:55:41.121Z,101922.63
2019-01-10T14:58:12.660Z,101925.94
2019-01-10T15:00:43.595Z,101919.17
2019-01-10T15:03:14.465Z,101915.70
2019-01-10T15:05:45.344Z,101917.02
2019-01-10T15:08:16.263Z,101923.30
2019-01-10T15:10:47.530Z,101919.89
2019-01-10T15:13:18.428Z,101912.61
2019-01-10T15:15:49.601Z,101921.55
2019-01-10T15:18:20.759Z,101924.94
2019-01-10T15:20:51.644Z,101930.38
2019-01-10T15:23:22.805Z,101929.55
2019-01-10T15:25:53.723Z,101919.42
2019-01-10T15:28:24.588Z,101917.36
2019-01-10T15:30:55.758Z,101921.53
2019-01-10T15:33:26.659Z,101916.44
2019-01-10T15:35:57.533Z,101915.13
2019-01-10T15:38:28.436Z,101922.69
2019-01-10T15:40:59.618Z,101924.34
2019-01-10T15:43:30.553Z,101923.95
2019-01-10T15:46:01.470Z,101921.87
2019-01-10T15:48:32.339Z,101926.55
2019-01-10T15:51:03.253Z,101921.06
2019-01-10T15:53:34.420Z,101923.53
2019-01-10T15:56:05.505Z,101928.64
2019-01-10T15:58:36.412Z,101923.55
2019-01-10T16:01:07.280Z,101927.34
2019-01-10T16:03:38.199Z,101929.92
2019-01-10T16:06:09.385Z,101927.77
2019-01-10T16:08:40.260Z,101928.62
2019-01-10T16:11:11.446Z,101931.52
2019-01-10T16:13:42.608Z,101927.62
2019-01-10T16:16:13.529Z,101928.05
2019-01-10T16:18:44.394Z,101922.62
2019-01-10T16:21:15.260Z,101918.41
2019-01-10T16:23:46.182Z,101919.20
2019-01-10T16:26:17.065Z,101924.70
2019-01-10T16:28:48.341Z,101922.94
2019-01-10T16:31:19.219Z,101926.67
2019-01-10T16:33:50.083Z,101926.28
2019-01-10T16:36:22.328Z,101921.05
2019-01-10T16:38:53.207Z,101911.28
2019-01-10T16:41:24.158Z,101909.11
2019-01-10T16:43:55.122Z,101906.53
2019-01-10T16:46:26.004Z,101906.55
2019-01-10T16:48:57.250Z,101907.67
2019-01-10T16:51:28.713Z,101908.02
2019-01-10T16:53:59.658Z,101906.72
2019-01-10T16:56:30.535Z,101907.06
2019-01-10T16:59:01.442Z,101910.11
2019-01-10T17:01:32.377Z,101909.59
2019-01-10T17:04:03.350Z,101910.45
2019-01-10T17:06:34.665Z,101915.16
2019-01-10T17:09:08.618Z,101910.45
2019-01-10T17:11:39.648Z,101906.20
2019-01-10T17:14:10.533Z,101903.52
2019-01-10T17:16:41.419Z,101907.35
2019-01-10T17:19:12.325Z,101910.31
2019-01-10T17:21:43.206Z,101906.91
2019-01-10T17:24:14.131Z,101910.23
2019-01-10T17:26:45.011Z,101900.87
2019-01-10T17:29:15.912Z,101897.55
2019-01-10T17:31:46.868Z,101896.34
2019-01-10T17:34:17.746Z,101895.09
2019-01-10T17:36:49.240Z,101899.37
2019-01-10T17:39:20.135Z,101904.19
2019-01-10T17:41:51.023Z,101901.65
2019-01-10T17:44:21.934Z,101902.91
2019-01-10T17:46:52.836Z,101899.48
2019-01-10T17:49:23.770Z,101899.96
2019-01-10T17:51:54.660Z,101903.00
2019-01-10T17:54:25.842Z,101902.66
2019-01-10T17:56:56.741Z,101905.15
2019-01-10T17:59:27.684Z,101902.18
2019-01-10T18:01:58.931Z,101900.43
2019-01-10T18:04:30.096Z,101903.40
2019-01-10T18:07:01.022Z,101896.66
2019-01-10T18:09:31.949Z,101898.77
2019-01-10T18:12:04.659Z,101893.64
2019-01-10T18:14:35.608Z,101897.02
2019-01-10T18:17:06.608Z,101888.07
2019-01-10T18:19:37.493Z,101892.83
2019-01-10T18:22:08.427Z,101895.82
2019-01-10T18:24:39.314Z,101896.22
2019-01-10T18:27:10.312Z,101895.05
2019-01-10T18:29:41.584Z,101895.88
2019-01-10T18:32:12.749Z,101878.41
2019-01-10T18:34:43.679Z,101882.68
2019-01-10T18:37:14.591Z,101893.16
2019-01-10T18:39:45.501Z,101901.66
2019-01-10T18:42:16.399Z,101892.30
2019-01-10T18:44:47.603Z,101882.08
2019-01-10T18:47:18.569Z,101881.16
2019-01-10T18:49:51.652Z,101885.38
2019-01-10T18:52:22.587Z,101885.02
2019-01-10T18:54:53.492Z,101887.34
2019-01-10T18:57:24.389Z,101882.14
2019-01-10T18:59:55.324Z,101883.06
2019-01-10T19:03:16.175Z,101886.85
2019-01-10T19:06:47.354Z,101893.98
2019-01-10T19:10:21.898Z,101895.34
2019-01-10T19:12:51.511Z,101900.31
2019-01-10T19:15:23.338Z,101900.84
2019-01-10T19:17:54.246Z,101885.58
2019-01-10T19:20:28.406Z,101882.89
2019-01-10T19:23:01.858Z,101891.83
2019-01-10T19:25:33.398Z,101900.70
2019-01-10T19:28:04.273Z,101899.37
2019-01-10T19:30:38.407Z,101908.77
2019-01-10T19:33:09.467Z,101909.98
2019-01-10T19:35:42.017Z,101915.08
2019-01-10T19:38:13.552Z,101907.89
2019-01-10T19:40:44.540Z,101910.53
2019-01-10T19:43:17.130Z,101917.27
2019-01-10T19:45:48.314Z,101912.97
2019-01-10T19:48:19.815Z,101918.91
2019-01-10T19:50:52.986Z,101915.51
2019-01-10T19:53:23.878Z,101915.52
2019-01-10T19:55:55.721Z,101911.35
2019-01-10T19:58:26.624Z,101914.89
2019-01-10T20:00:58.476Z,101911.53
2019-01-10T20:03:29.737Z,101914.48
2019-01-10T20:06:01.096Z,101914.51
2019-01-10T20:08:32.351Z,101916.19
2019-01-10T20:11:03.335Z,101912.45
2019-01-10T20:13:37.300Z,101915.37
2019-01-10T20:16:08.773Z,101912.83
2019-01-10T20:18:40.324Z,101916.70
2019-01-10T20:21:13.279Z,101917.13
2019-01-10T20:23:44.506Z,101917.84
2019-01-10T20:26:16.580Z,101914.91
2019-01-10T20:28:47.905Z,101915.84
2019-01-10T20:31:19.067Z,101911.52
2019-01-10T20:33:49.981Z,101915.73
2019-01-10T20:36:22.221Z,101914.07
2019-01-10T20:38:53.165Z,101910.51
2019-01-10T20:41:24.052Z,101918.26
2019-01-10T20:43:55.005Z,101918.16
2019-01-10T20:46:25.910Z,101914.32
2019-01-10T20:48:56.786Z,101911.75
2019-01-10T20:51:27.694Z,101913.39
2019-01-10T20:53:58.568Z,101907.89
2019-01-10T20:56:29.507Z,101906.53
2019-01-10T20:59:00.678Z,101900.19
2019-01-10T21:01:32.148Z,101900.36
2019-01-10T21:04:03.187Z,101903.66
2019-01-10T21:06:36.838Z,101903.59
2019-01-10T21:09:13.115Z,101903.48
2019-01-10T21:11:43.317Z,101904.30
2019-01-10T21:14:14.271Z,101901.39
2019-01-10T21:16:45.168Z,101898.40
2019-01-10T21:19:16.068Z,101893.31
2019-01-10T21:21:46.966Z,101896.66
2019-01-10T21:24:18.142Z,101898.27
2019-01-10T21:26:49.419Z,101899.09
2019-01-10T21:29:26.300Z,101893.95
2019-01-10T21:31:57.241Z,101896.54
2019-01-10T21:34:28.217Z,101888.42
2019-01-10T21:36:59.084Z,101888.39
2019-01-10T21:39:30.001Z,101885.38
2019-01-10T21:42:01.385Z,101892.98
2019-01-10T21:44:32.392Z,101890.45
2019-01-10T21:47:03.315Z,101889.67
2019-01-10T21:49:34.203Z,101893.91
2019-01-10T21:52:05.236Z,101892.20
2019-01-10T21:54:37.967Z,101887.41
2019-01-10T21:57:09.173Z,101884.07
2019-01-10T21:59:40.065Z,101884.91
2019-01-10T22:02:10.992Z,101885.80
2019-01-10T22:04:42.158Z,101882.92
2019-01-10T22:07:13.042Z,101882.00
2019-01-10T22:09:43.968Z,101889.32
2019-01-10T22:12:14.903Z,101885.96
2019-01-10T22:14:45.846Z,101884.30
2019-01-10T22:17:16.725Z,101880.00
2019-01-10T22:19:47.884Z,101883.75
2019-01-10T22:22:19.070Z,101880.41
2019-01-10T22:24:50.093Z,101879.12
2019-01-10T22:27:21.017Z,101878.63
2019-01-10T22:29:51.903Z,101884.55
2019-01-10T22:32:22.840Z,101883.74
2019-01-10T22:34:53.818Z,101885.02
2019-01-10T22:37:28.971Z,101884.98
2019-01-10T22:39:57.444Z,101882.88
2019-01-10T22:42:28.399Z,101877.81
2019-01-10T22:44:59.281Z,101869.72
2019-01-10T22:47:30.188Z,101865.94
2019-01-10T22:50:01.062Z,101862.20
2019-01-10T22:52:32.379Z,101862.50
2019-01-10T22:55:03.333Z,101864.20
2019-01-10T22:57:34.548Z,101855.99
2019-01-10T23:00:12.242Z,101856.48
2019-01-10T23:02:43.520Z,101854.45
2019-01-10T23:05:14.542Z,101857.83
2019-01-10T23:07:45.887Z,101852.38
2019-01-10T23:10:16.854Z,101853.22
2019-01-10T23:12:47.736Z,101857.41
2019-01-10T23:15:35.771Z,101852.75
2019-01-10T23:18:07.773Z,101850.69
2019-01-10T23:20:38.722Z,101847.72
2019-01-10T23:23:11.517Z,101848.14
2019-01-10T23:25:42.497Z,101843.95
2019-01-10T23:28:13.428Z,101837.52
2019-01-10T23:30:59.603Z,101838.72
2019-01-10T23:33:30.938Z,101833.27
2019-01-10T23:36:06.074Z,101823.95
2019-01-10T23:38:37.156Z,101818.84
2019-01-10T23:41:08.141Z,101815.45
2019-01-10T23:43:39.120Z,101815.83
2019-01-10T23:46:10.148Z,101813.72
2019-01-10T23:48:41.319Z,101808.94
2019-01-10T23:51:12.561Z,101806.45
2019-01-10T23:53:43.463Z,101801.77
2019-01-10T23:56:14.331Z,101800.94
2019-01-10T23:58:45.528Z,101799.25
